sensor_id;sensor_type;location;lat;lon;timestamp;temperature;humidity
22813;DHT22;11573;51.334;3.244;2023-07-09T00:01:28;20.70;99.90
22813;DHT22;11573;51.334;3.244;2023-07-09T00:03:55;20.60;99.90
22813;DHT22;11573;51.334;3.244;2023-07-09T00:06:22;20.60;99.90
22813;DHT22;11573;51.334;3.244;2023-07-09T00:08:49;20.60;99.90
22813;DHT22;11573;51.334;3.244;2023-07-09T00:11:17;20.50;99.90
22813;DHT22;11573;51.334;3.244;2023-07-09T00:13:44;20.40;99.90
22813;DHT22;11573;51.334;3.244;2023-07-09T00:16:13;20.30;99.90
22813;DHT22;11573;51.334;3.244;2023-07-09T00:18:41;20.20;99.90
22813;DHT22;11573;51.334;3.244;2023-07-09T00:21:08;20.30;99.90
22813;DHT22;11573;51.334;3.244;2023-07-09T00:23:35;20.20;99.90
22813;DHT22;11573;51.334;3.244;2023-07-09T00:26:10;20.30;99.90
22813;DHT22;11573;51.334;3.244;2023-07-09T00:28:38;20.20;99.90
22813;DHT22;11573;51.334;3.244;2023-07-09T00:31:04;20.20;99.90
22813;DHT22;11573;51.334;3.244;2023-07-09T00:33:31;20.20;99.90
22813;DHT22;11573;51.334;3.244;2023-07-09T00:35:59;20.20;99.90
22813;DHT22;11573;51.334;3.244;2023-07-09T00:38:28;20.20;99.90
22813;DHT22;11573;51.334;3.244;2023-07-09T00:41:05;20.30;99.90
22813;DHT22;11573;51.334;3.244;2023-07-09T00:43:35;20.30;99.90
22813;DHT22;11573;51.334;3.244;2023-07-09T00:49:06;20.40;99.90
22813;DHT22;11573;51.334;3.244;2023-07-09T00:51:38;20.40;99.90
22813;DHT22;11573;51.334;3.244;2023-07-09T00:54:36;20.30;99.90
22813;DHT22;11573;51.334;3.244;2023-07-09T00:57:13;20.20;99.90
22813;DHT22;11573;51.334;3.244;2023-07-09T00:59:51;20.10;99.90
22813;DHT22;11573;51.334;3.244;2023-07-09T01:02:20;20.10;99.90
22813;DHT22;11573;51.334;3.244;2023-07-09T01:04:54;20.00;99.90
22813;DHT22;11573;51.334;3.244;2023-07-09T01:07:22;19.90;99.90
22813;DHT22;11573;51.334;3.244;2023-07-09T01:09:50;19.80;99.90
22813;DHT22;11573;51.334;3.244;2023-07-09T01:12:19;19.70;99.90
22813;DHT22;11573;51.334;3.244;2023-07-09T01:14:48;19.70;99.90
22813;DHT22;11573;51.334;3.244;2023-07-09T01:17:18;19.60;99.90
22813;DHT22;11573;51.334;3.244;2023-07-09T01:19:50;19.50;99.90
22813;DHT22;11573;51.334;3.244;2023-07-09T01:22:19;19.50;99.90
22813;DHT22;11573;51.334;3.244;2023-07-09T01:24:57;19.70;99.90
22813;DHT22;11573;51.334;3.244;2023-07-09T01:27:42;19.70;99.90
22813;DHT22;11573;51.334;3.244;2023-07-09T01:30:29;19.90;99.90
22813;DHT22;11573;51.334;3.244;2023-07-09T01:32:59;20.00;99.90
22813;DHT22;11573;51.334;3.244;2023-07-09T01:35:30;20.00;99.90
22813;DHT22;11573;51.334;3.244;2023-07-09T01:37:58;20.10;99.90
22813;DHT22;11573;51.334;3.244;2023-07-09T01:40:26;20.10;99.90
22813;DHT22;11573;51.334;3.244;2023-07-09T01:43:01;20.10;99.90
22813;DHT22;11573;51.334;3.244;2023-07-09T01:45:28;20.10;99.90
22813;DHT22;11573;51.334;3.244;2023-07-09T01:47:56;20.10;99.90
22813;DHT22;11573;51.334;3.244;2023-07-09T01:50:23;20.00;99.90
22813;DHT22;11573;51.334;3.244;2023-07-09T01:52:52;20.10;99.90
22813;DHT22;11573;51.334;3.244;2023-07-09T01:55:20;20.00;99.90
22813;DHT22;11573;51.334;3.244;2023-07-09T01:57:47;20.00;99.90
22813;DHT22;11573;51.334;3.244;2023-07-09T02:00:18;19.90;99.90
22813;DHT22;11573;51.334;3.244;2023-07-09T02:02:47;19.80;99.90
22813;DHT22;11573;51.334;3.244;2023-07-09T02:05:17;19.80;99.90
22813;DHT22;11573;51.334;3.244;2023-07-09T02:07:45;19.70;99.90
22813;DHT22;11573;51.334;3.244;2023-07-09T02:10:15;19.60;99.90
22813;DHT22;11573;51.334;3.244;2023-07-09T02:12:42;19.60;99.90
22813;DHT22;11573;51.334;3.244;2023-07-09T02:15:10;19.60;99.90
22813;DHT22;11573;51.334;3.244;2023-07-09T02:17:37;19.60;99.90
22813;DHT22;11573;51.334;3.244;2023-07-09T02:20:04;19.60;99.90
22813;DHT22;11573;51.334;3.244;2023-07-09T02:22:34;19.50;99.90
22813;DHT22;11573;51.334;3.244;2023-07-09T02:25:02;19.50;99.90
22813;DHT22;11573;51.334;3.244;2023-07-09T02:27:30;19.40;99.90
22813;DHT22;11573;51.334;3.244;2023-07-09T02:29:58;19.40;99.90
22813;DHT22;11573;51.334;3.244;2023-07-09T02:32:26;19.30;99.90
22813;DHT22;11573;51.334;3.244;2023-07-09T02:34:54;19.20;99.90
22813;DHT22;11573;51.334;3.244;2023-07-09T02:37:26;19.20;99.90
22813;DHT22;11573;51.334;3.244;2023-07-09T02:39:53;19.10;99.90
22813;DHT22;11573;51.334;3.244;2023-07-09T02:42:22;19.10;99.90
22813;DHT22;11573;51.334;3.244;2023-07-09T02:44:50;19.10;99.90
22813;DHT22;11573;51.334;3.244;2023-07-09T02:47:18;19.10;99.90
22813;DHT22;11573;51.334;3.244;2023-07-09T02:49:45;19.10;99.90
22813;DHT22;11573;51.334;3.244;2023-07-09T02:52:12;19.10;99.90
22813;DHT22;11573;51.334;3.244;2023-07-09T02:54:40;19.20;99.90
22813;DHT22;11573;51.334;3.244;2023-07-09T02:57:07;19.20;99.90
22813;DHT22;11573;51.334;3.244;2023-07-09T02:59:34;19.20;99.90
22813;DHT22;11573;51.334;3.244;2023-07-09T03:02:02;19.20;99.90
22813;DHT22;11573;51.334;3.244;2023-07-09T03:04:31;19.10;99.90
22813;DHT22;11573;51.334;3.244;2023-07-09T03:06:58;19.10;99.90
22813;DHT22;11573;51.334;3.244;2023-07-09T03:09:27;19.10;99.90
22813;DHT22;11573;51.334;3.244;2023-07-09T03:11:54;19.10;99.90
22813;DHT22;11573;51.334;3.244;2023-07-09T03:14:22;19.00;99.90
22813;DHT22;11573;51.334;3.244;2023-07-09T03:16:49;19.10;99.90
22813;DHT22;11573;51.334;3.244;2023-07-09T03:19:16;19.10;99.90
22813;DHT22;11573;51.334;3.244;2023-07-09T03:21:43;19.20;99.90
22813;DHT22;11573;51.334;3.244;2023-07-09T03:24:10;19.20;99.90
22813;DHT22;11573;51.334;3.244;2023-07-09T03:26:37;19.30;99.90
22813;DHT22;11573;51.334;3.244;2023-07-09T03:29:05;19.50;99.90
22813;DHT22;11573;51.334;3.244;2023-07-09T03:31:31;19.60;99.90
22813;DHT22;11573;51.334;3.244;2023-07-09T03:34:02;19.70;99.90
22813;DHT22;11573;51.334;3.244;2023-07-09T03:36:29;19.70;99.90
22813;DHT22;11573;51.334;3.244;2023-07-09T03:38:56;19.90;99.90
22813;DHT22;11573;51.334;3.244;2023-07-09T03:41:24;20.00;99.90
22813;DHT22;11573;51.334;3.244;2023-07-09T03:43:51;20.10;99.90
22813;DHT22;11573;51.334;3.244;2023-07-09T03:46:20;20.20;99.90
22813;DHT22;11573;51.334;3.244;2023-07-09T03:48:47;20.30;99.90
22813;DHT22;11573;51.334;3.244;2023-07-09T03:51:17;20.30;99.90
22813;DHT22;11573;51.334;3.244;2023-07-09T03:53:44;20.40;99.90
22813;DHT22;11573;51.334;3.244;2023-07-09T03:56:11;20.40;99.90
22813;DHT22;11573;51.334;3.244;2023-07-09T03:58:38;20.50;99.90
22813;DHT22;11573;51.334;3.244;2023-07-09T04:01:05;20.60;99.90
22813;DHT22;11573;51.334;3.244;2023-07-09T04:03:32;20.60;99.90
22813;DHT22;11573;51.334;3.244;2023-07-09T04:05:59;20.60;99.90
22813;DHT22;11573;51.334;3.244;2023-07-09T04:08:26;20.50;99.90
22813;DHT22;11573;51.334;3.244;2023-07-09T04:10:54;20.60;99.90
22813;DHT22;11573;51.334;3.244;2023-07-09T04:13:23;20.70;99.90
22813;DHT22;11573;51.334;3.244;2023-07-09T04:15:50;20.60;99.90
22813;DHT22;11573;51.334;3.244;2023-07-09T04:18:17;20.70;99.90
22813;DHT22;11573;51.334;3.244;2023-07-09T04:20:48;20.70;99.90
22813;DHT22;11573;51.334;3.244;2023-07-09T04:23:17;20.70;99.90
22813;DHT22;11573;51.334;3.244;2023-07-09T04:25:44;20.70;99.90
22813;DHT22;11573;51.334;3.244;2023-07-09T04:28:11;20.80;99.90
22813;DHT22;11573;51.334;3.244;2023-07-09T04:30:38;20.80;99.90
22813;DHT22;11573;51.334;3.244;2023-07-09T04:33:05;21.00;99.90
22813;DHT22;11573;51.334;3.244;2023-07-09T04:35:32;21.20;99.90
22813;DHT22;11573;51.334;3.244;2023-07-09T04:37:59;21.30;99.90
22813;DHT22;11573;51.334;3.244;2023-07-09T04:40:26;21.20;99.90
22813;DHT22;11573;51.334;3.244;2023-07-09T04:42:53;21.20;99.90
22813;DHT22;11573;51.334;3.244;2023-07-09T04:45:20;21.30;99.90
22813;DHT22;11573;51.334;3.244;2023-07-09T04:47:47;21.40;99.90
22813;DHT22;11573;51.334;3.244;2023-07-09T04:50:14;21.40;99.90
22813;DHT22;11573;51.334;3.244;2023-07-09T04:52:41;21.30;99.90
22813;DHT22;11573;51.334;3.244;2023-07-09T04:55:08;21.30;99.90
22813;DHT22;11573;51.334;3.244;2023-07-09T04:57:36;21.30;99.90
22813;DHT22;11573;51.334;3.244;2023-07-09T05:00:03;21.40;99.90
22813;DHT22;11573;51.334;3.244;2023-07-09T05:02:33;21.60;99.90
22813;DHT22;11573;51.334;3.244;2023-07-09T05:05:00;21.60;99.90
22813;DHT22;11573;51.334;3.244;2023-07-09T05:07:27;21.50;99.90
22813;DHT22;11573;51.334;3.244;2023-07-09T05:09:54;21.80;99.90
22813;DHT22;11573;51.334;3.244;2023-07-09T05:12:21;22.10;99.90
22813;DHT22;11573;51.334;3.244;2023-07-09T05:14:48;22.40;99.90
22813;DHT22;11573;51.334;3.244;2023-07-09T05:17:15;23.00;99.90
22813;DHT22;11573;51.334;3.244;2023-07-09T05:19:42;23.30;99.90
22813;DHT22;11573;51.334;3.244;2023-07-09T05:22:09;23.60;99.90
22813;DHT22;11573;51.334;3.244;2023-07-09T05:24:36;24.00;99.90
22813;DHT22;11573;51.334;3.244;2023-07-09T05:27:04;24.20;99.90
22813;DHT22;11573;51.334;3.244;2023-07-09T05:29:31;24.20;99.90
22813;DHT22;11573;51.334;3.244;2023-07-09T05:31:58;24.20;99.90
22813;DHT22;11573;51.334;3.244;2023-07-09T05:34:25;23.80;99.90
22813;DHT22;11573;51.334;3.244;2023-07-09T05:36:52;24.00;99.90
22813;DHT22;11573;51.334;3.244;2023-07-09T05:39:19;24.10;99.90
22813;DHT22;11573;51.334;3.244;2023-07-09T05:41:46;24.30;99.90
22813;DHT22;11573;51.334;3.244;2023-07-09T05:44:12;24.40;99.90
22813;DHT22;11573;51.334;3.244;2023-07-09T05:46:40;24.60;99.90
22813;DHT22;11573;51.334;3.244;2023-07-09T05:49:07;25.20;99.90
22813;DHT22;11573;51.334;3.244;2023-07-09T05:51:34;25.50;99.90
22813;DHT22;11573;51.334;3.244;2023-07-09T05:54:01;25.20;99.90
22813;DHT22;11573;51.334;3.244;2023-07-09T05:56:28;24.70;99.90
22813;DHT22;11573;51.334;3.244;2023-07-09T05:58:56;24.30;99.90
22813;DHT22;11573;51.334;3.244;2023-07-09T06:01:23;24.10;99.90
22813;DHT22;11573;51.334;3.244;2023-07-09T06:03:51;24.30;99.90
22813;DHT22;11573;51.334;3.244;2023-07-09T06:06:18;24.70;99.90
22813;DHT22;11573;51.334;3.244;2023-07-09T06:08:45;25.00;99.90
22813;DHT22;11573;51.334;3.244;2023-07-09T06:11:14;25.40;99.90
22813;DHT22;11573;51.334;3.244;2023-07-09T06:13:41;25.20;99.90
22813;DHT22;11573;51.334;3.244;2023-07-09T06:16:08;25.00;99.90
22813;DHT22;11573;51.334;3.244;2023-07-09T06:18:35;24.80;99.90
22813;DHT22;11573;51.334;3.244;2023-07-09T06:21:03;24.30;99.90
22813;DHT22;11573;51.334;3.244;2023-07-09T06:23:31;24.10;99.90
22813;DHT22;11573;51.334;3.244;2023-07-09T06:25:59;24.20;99.90
22813;DHT22;11573;51.334;3.244;2023-07-09T06:28:27;24.00;99.90
22813;DHT22;11573;51.334;3.244;2023-07-09T06:30:57;24.00;99.90
22813;DHT22;11573;51.334;3.244;2023-07-09T06:33:25;24.20;99.90
22813;DHT22;11573;51.334;3.244;2023-07-09T06:35:56;24.60;99.90
22813;DHT22;11573;51.334;3.244;2023-07-09T06:38:23;24.70;99.90
22813;DHT22;11573;51.334;3.244;2023-07-09T06:40:51;24.60;99.90
22813;DHT22;11573;51.334;3.244;2023-07-09T06:43:18;24.80;99.90
22813;DHT22;11573;51.334;3.244;2023-07-09T06:45:56;24.40;99.90
22813;DHT22;11573;51.334;3.244;2023-07-09T06:48:24;24.00;99.90
22813;DHT22;11573;51.334;3.244;2023-07-09T06:50:53;23.70;99.90
22813;DHT22;11573;51.334;3.244;2023-07-09T06:53:21;23.40;99.90
22813;DHT22;11573;51.334;3.244;2023-07-09T06:55:49;23.30;99.90
22813;DHT22;11573;51.334;3.244;2023-07-09T06:58:17;23.40;99.90
22813;DHT22;11573;51.334;3.244;2023-07-09T07:00:45;23.50;99.90
22813;DHT22;11573;51.334;3.244;2023-07-09T07:03:12;23.80;99.90
22813;DHT22;11573;51.334;3.244;2023-07-09T07:05:44;24.30;99.90
22813;DHT22;11573;51.334;3.244;2023-07-09T07:08:14;24.60;99.90
22813;DHT22;11573;51.334;3.244;2023-07-09T07:10:42;24.90;99.90
22813;DHT22;11573;51.334;3.244;2023-07-09T07:13:10;25.00;99.90
22813;DHT22;11573;51.334;3.244;2023-07-09T07:15:38;25.30;99.90
22813;DHT22;11573;51.334;3.244;2023-07-09T07:18:06;25.40;99.90
22813;DHT22;11573;51.334;3.244;2023-07-09T07:20:34;25.50;99.90
22813;DHT22;11573;51.334;3.244;2023-07-09T07:23:01;24.90;99.90
22813;DHT22;11573;51.334;3.244;2023-07-09T07:25:28;25.10;99.90
22813;DHT22;11573;51.334;3.244;2023-07-09T07:27:57;24.80;99.90
22813;DHT22;11573;51.334;3.244;2023-07-09T07:30:24;24.60;99.90
22813;DHT22;11573;51.334;3.244;2023-07-09T07:32:52;24.40;99.90
22813;DHT22;11573;51.334;3.244;2023-07-09T07:35:19;24.50;99.90
22813;DHT22;11573;51.334;3.244;2023-07-09T07:37:46;24.80;99.90
22813;DHT22;11573;51.334;3.244;2023-07-09T07:40:13;25.00;99.90
22813;DHT22;11573;51.334;3.244;2023-07-09T07:42:40;25.00;99.90
22813;DHT22;11573;51.334;3.244;2023-07-09T07:45:08;25.10;99.90
22813;DHT22;11573;51.334;3.244;2023-07-09T07:47:35;25.00;99.90
22813;DHT22;11573;51.334;3.244;2023-07-09T07:50:08;24.90;99.90
22813;DHT22;11573;51.334;3.244;2023-07-09T07:52:35;24.60;99.90
22813;DHT22;11573;51.334;3.244;2023-07-09T07:55:08;24.50;99.90
22813;DHT22;11573;51.334;3.244;2023-07-09T07:57:41;24.50;99.90
22813;DHT22;11573;51.334;3.244;2023-07-09T08:00:08;24.40;99.90
22813;DHT22;11573;51.334;3.244;2023-07-09T08:02:38;24.30;99.90
22813;DHT22;11573;51.334;3.244;2023-07-09T08:05:06;24.40;99.90
22813;DHT22;11573;51.334;3.244;2023-07-09T08:07:33;24.50;99.90
22813;DHT22;11573;51.334;3.244;2023-07-09T08:10:00;24.70;99.90
22813;DHT22;11573;51.334;3.244;2023-07-09T08:12:27;24.70;99.90
22813;DHT22;11573;51.334;3.244;2023-07-09T08:14:54;24.50;99.90
22813;DHT22;11573;51.334;3.244;2023-07-09T08:17:21;24.40;99.90
22813;DHT22;11573;51.334;3.244;2023-07-09T08:19:53;24.50;99.90
22813;DHT22;11573;51.334;3.244;2023-07-09T08:22:21;24.30;99.90
22813;DHT22;11573;51.334;3.244;2023-07-09T08:24:49;24.40;99.90
22813;DHT22;11573;51.334;3.244;2023-07-09T08:27:17;24.80;99.90
22813;DHT22;11573;51.334;3.244;2023-07-09T08:29:44;25.20;99.90
22813;DHT22;11573;51.334;3.244;2023-07-09T08:32:12;25.30;99.90
22813;DHT22;11573;51.334;3.244;2023-07-09T08:34:40;25.30;99.90
22813;DHT22;11573;51.334;3.244;2023-07-09T08:37:27;24.80;99.90
22813;DHT22;11573;51.334;3.244;2023-07-09T08:39:54;24.80;99.90
22813;DHT22;11573;51.334;3.244;2023-07-09T08:42:29;25.00;99.90
22813;DHT22;11573;51.334;3.244;2023-07-09T08:45:07;25.00;99.90
22813;DHT22;11573;51.334;3.244;2023-07-09T08:50:59;25.40;99.90
22813;DHT22;11573;51.334;3.244;2023-07-09T08:53:35;25.30;99.90
22813;DHT22;11573;51.334;3.244;2023-07-09T08:56:03;25.50;99.90
22813;DHT22;11573;51.334;3.244;2023-07-09T08:58:31;25.90;99.90
22813;DHT22;11573;51.334;3.244;2023-07-09T09:01:05;25.90;99.90
22813;DHT22;11573;51.334;3.244;2023-07-09T09:03:43;26.20;99.90
22813;DHT22;11573;51.334;3.244;2023-07-09T09:06:16;26.30;99.90
22813;DHT22;11573;51.334;3.244;2023-07-09T09:16:46;25.40;99.90
22813;DHT22;11573;51.334;3.244;2023-07-09T09:19:29;25.10;99.90
22813;DHT22;11573;51.334;3.244;2023-07-09T09:22:02;25.60;99.90
22813;DHT22;11573;51.334;3.244;2023-07-09T09:24:36;25.70;99.90
22813;DHT22;11573;51.334;3.244;2023-07-09T09:27:04;25.90;99.90
22813;DHT22;11573;51.334;3.244;2023-07-09T09:29:31;26.10;99.90
22813;DHT22;11573;51.334;3.244;2023-07-09T09:32:02;26.20;99.90
22813;DHT22;11573;51.334;3.244;2023-07-09T09:34:38;26.10;99.90
22813;DHT22;11573;51.334;3.244;2023-07-09T09:37:10;25.70;99.90
22813;DHT22;11573;51.334;3.244;2023-07-09T09:39:38;25.70;99.90
22813;DHT22;11573;51.334;3.244;2023-07-09T09:42:11;25.50;99.90
22813;DHT22;11573;51.334;3.244;2023-07-09T09:44:44;25.10;99.90
22813;DHT22;11573;51.334;3.244;2023-07-09T09:47:12;25.30;99.90
22813;DHT22;11573;51.334;3.244;2023-07-09T09:49:44;25.00;99.90
22813;DHT22;11573;51.334;3.244;2023-07-09T09:52:16;24.80;99.90
22813;DHT22;11573;51.334;3.244;2023-07-09T09:54:54;24.30;99.90
22813;DHT22;11573;51.334;3.244;2023-07-09T09:57:24;24.00;99.90
22813;DHT22;11573;51.334;3.244;2023-07-09T09:59:54;23.40;99.90
22813;DHT22;11573;51.334;3.244;2023-07-09T10:02:23;22.90;99.90
22813;DHT22;11573;51.334;3.244;2023-07-09T10:04:52;22.70;99.90
22813;DHT22;11573;51.334;3.244;2023-07-09T10:07:23;22.40;99.90
22813;DHT22;11573;51.334;3.244;2023-07-09T10:09:54;22.20;99.90
22813;DHT22;11573;51.334;3.244;2023-07-09T10:14:54;22.10;99.90
22813;DHT22;11573;51.334;3.244;2023-07-09T10:20:00;22.00;99.90
22813;DHT22;11573;51.334;3.244;2023-07-09T10:22:40;21.90;99.90
22813;DHT22;11573;51.334;3.244;2023-07-09T10:28:31;21.70;99.90
22813;DHT22;11573;51.334;3.244;2023-07-09T10:31:13;21.80;99.90
22813;DHT22;11573;51.334;3.244;2023-07-09T10:34:11;21.60;99.90
22813;DHT22;11573;51.334;3.244;2023-07-09T10:39:42;21.40;99.90
22813;DHT22;11573;51.334;3.244;2023-07-09T10:42:29;21.40;99.90
22813;DHT22;11573;51.334;3.244;2023-07-09T10:45:30;21.40;99.90
22813;DHT22;11573;51.334;3.244;2023-07-09T10:48:14;21.40;99.90
22813;DHT22;11573;51.334;3.244;2023-07-09T10:50:49;21.50;99.90
22813;DHT22;11573;51.334;3.244;2023-07-09T10:53:31;21.50;99.90
22813;DHT22;11573;51.334;3.244;2023-07-09T10:56:10;21.60;99.90
22813;DHT22;11573;51.334;3.244;2023-07-09T11:01:21;21.60;99.90
22813;DHT22;11573;51.334;3.244;2023-07-09T11:03:56;21.60;99.90
22813;DHT22;11573;51.334;3.244;2023-07-09T11:06:37;21.40;99.90
22813;DHT22;11573;51.334;3.244;2023-07-09T11:11:50;21.20;99.90
22813;DHT22;11573;51.334;3.244;2023-07-09T11:14:51;21.40;99.90
22813;DHT22;11573;51.334;3.244;2023-07-09T11:17:21;21.50;99.90
22813;DHT22;11573;51.334;3.244;2023-07-09T11:19:55;21.60;99.90
22813;DHT22;11573;51.334;3.244;2023-07-09T11:22:38;21.40;99.90
22813;DHT22;11573;51.334;3.244;2023-07-09T11:25:14;21.70;99.90
22813;DHT22;11573;51.334;3.244;2023-07-09T11:27:53;22.20;99.90
22813;DHT22;11573;51.334;3.244;2023-07-09T11:30:26;22.80;99.90
22813;DHT22;11573;51.334;3.244;2023-07-09T11:33:04;23.70;99.90
22813;DHT22;11573;51.334;3.244;2023-07-09T11:35:53;24.00;99.90
22813;DHT22;11573;51.334;3.244;2023-07-09T11:38:23;24.10;99.90
22813;DHT22;11573;51.334;3.244;2023-07-09T11:40:55;24.00;99.90
22813;DHT22;11573;51.334;3.244;2023-07-09T11:43:33;24.00;99.90
22813;DHT22;11573;51.334;3.244;2023-07-09T11:46:11;24.00;99.90
22813;DHT22;11573;51.334;3.244;2023-07-09T11:48:40;23.90;99.90
22813;DHT22;11573;51.334;3.244;2023-07-09T11:51:17;23.50;99.90
22813;DHT22;11573;51.334;3.244;2023-07-09T11:53:47;23.20;99.90
22813;DHT22;11573;51.334;3.244;2023-07-09T11:56:22;22.90;99.90
22813;DHT22;11573;51.334;3.244;2023-07-09T11:58:56;22.60;99.90
22813;DHT22;11573;51.334;3.244;2023-07-09T12:01:34;22.30;99.90
22813;DHT22;11573;51.334;3.244;2023-07-09T12:04:03;22.10;99.90
22813;DHT22;11573;51.334;3.244;2023-07-09T12:06:33;21.80;99.90
22813;DHT22;11573;51.334;3.244;2023-07-09T12:09:00;21.80;99.90
22813;DHT22;11573;51.334;3.244;2023-07-09T12:11:33;21.70;99.90
22813;DHT22;11573;51.334;3.244;2023-07-09T12:14:06;21.50;99.90
22813;DHT22;11573;51.334;3.244;2023-07-09T12:16:40;21.30;99.90
22813;DHT22;11573;51.334;3.244;2023-07-09T12:19:10;21.30;99.90
22813;DHT22;11573;51.334;3.244;2023-07-09T12:21:40;21.20;99.90
22813;DHT22;11573;51.334;3.244;2023-07-09T12:24:24;20.80;99.90
22813;DHT22;11573;51.334;3.244;2023-07-09T12:29:20;20.40;99.90
22813;DHT22;11573;51.334;3.244;2023-07-09T12:31:50;20.40;99.90
22813;DHT22;11573;51.334;3.244;2023-07-09T12:34:17;20.40;99.90
22813;DHT22;11573;51.334;3.244;2023-07-09T12:36:48;20.50;99.90
22813;DHT22;11573;51.334;3.244;2023-07-09T12:39:24;20.60;99.90
22813;DHT22;11573;51.334;3.244;2023-07-09T12:41:55;20.80;99.90
22813;DHT22;11573;51.334;3.244;2023-07-09T12:44:23;20.80;99.90
22813;DHT22;11573;51.334;3.244;2023-07-09T12:46:52;21.00;99.90
22813;DHT22;11573;51.334;3.244;2023-07-09T12:49:27;21.10;99.90
22813;DHT22;11573;51.334;3.244;2023-07-09T12:51:55;21.20;99.90
22813;DHT22;11573;51.334;3.244;2023-07-09T12:54:23;21.10;99.90
22813;DHT22;11573;51.334;3.244;2023-07-09T12:56:54;21.30;99.90
22813;DHT22;11573;51.334;3.244;2023-07-09T12:59:23;21.30;99.90
22813;DHT22;11573;51.334;3.244;2023-07-09T13:04:36;21.80;99.90
22813;DHT22;11573;51.334;3.244;2023-07-09T13:07:04;22.20;99.90
22813;DHT22;11573;51.334;3.244;2023-07-09T13:09:32;22.50;99.90
22813;DHT22;11573;51.334;3.244;2023-07-09T13:11:58;22.70;99.90
22813;DHT22;11573;51.334;3.244;2023-07-09T13:14:30;23.00;99.90
22813;DHT22;11573;51.334;3.244;2023-07-09T13:17:08;22.90;99.90
22813;DHT22;11573;51.334;3.244;2023-07-09T13:19:36;22.80;99.90
22813;DHT22;11573;51.334;3.244;2023-07-09T13:22:04;22.70;99.90
22813;DHT22;11573;51.334;3.244;2023-07-09T13:24:32;22.60;99.90
22813;DHT22;11573;51.334;3.244;2023-07-09T13:27:01;23.00;99.90
22813;DHT22;11573;51.334;3.244;2023-07-09T13:29:28;22.90;99.90
22813;DHT22;11573;51.334;3.244;2023-07-09T13:31:55;23.00;99.90
22813;DHT22;11573;51.334;3.244;2023-07-09T13:34:27;23.00;99.90
22813;DHT22;11573;51.334;3.244;2023-07-09T13:36:55;22.90;99.90
22813;DHT22;11573;51.334;3.244;2023-07-09T13:39:23;22.90;99.90
22813;DHT22;11573;51.334;3.244;2023-07-09T13:41:54;22.90;99.90
22813;DHT22;11573;51.334;3.244;2023-07-09T13:44:25;23.00;99.90
22813;DHT22;11573;51.334;3.244;2023-07-09T13:46:52;23.30;99.90
22813;DHT22;11573;51.334;3.244;2023-07-09T13:49:23;23.70;99.90
22813;DHT22;11573;51.334;3.244;2023-07-09T13:51:52;24.40;99.90
22813;DHT22;11573;51.334;3.244;2023-07-09T13:54:31;25.20;99.90
22813;DHT22;11573;51.334;3.244;2023-07-09T13:57:06;25.40;99.90
22813;DHT22;11573;51.334;3.244;2023-07-09T13:59:34;25.50;99.90
22813;DHT22;11573;51.334;3.244;2023-07-09T14:02:01;25.20;99.90
22813;DHT22;11573;51.334;3.244;2023-07-09T14:04:32;25.40;99.90
22813;DHT22;11573;51.334;3.244;2023-07-09T14:06:58;25.10;99.90
22813;DHT22;11573;51.334;3.244;2023-07-09T14:09:26;25.10;99.90
22813;DHT22;11573;51.334;3.244;2023-07-09T14:11:53;25.10;99.90
22813;DHT22;11573;51.334;3.244;2023-07-09T14:14:24;25.50;99.90
22813;DHT22;11573;51.334;3.244;2023-07-09T14:16:51;25.80;99.90
22813;DHT22;11573;51.334;3.244;2023-07-09T14:19:21;25.20;99.90
22813;DHT22;11573;51.334;3.244;2023-07-09T14:21:53;25.10;99.90
22813;DHT22;11573;51.334;3.244;2023-07-09T14:24:24;24.60;99.90
22813;DHT22;11573;51.334;3.244;2023-07-09T14:26:55;24.60;99.90
22813;DHT22;11573;51.334;3.244;2023-07-09T14:29:23;24.60;99.90
22813;DHT22;11573;51.334;3.244;2023-07-09T14:31:51;24.70;99.90
22813;DHT22;11573;51.334;3.244;2023-07-09T14:34:21;25.00;99.90
22813;DHT22;11573;51.334;3.244;2023-07-09T14:36:50;25.10;99.90
22813;DHT22;11573;51.334;3.244;2023-07-09T14:39:18;25.70;99.90
22813;DHT22;11573;51.334;3.244;2023-07-09T14:41:45;25.90;99.90
22813;DHT22;11573;51.334;3.244;2023-07-09T14:44:29;25.80;99.90
22813;DHT22;11573;51.334;3.244;2023-07-09T14:46:59;25.80;99.90
22813;DHT22;11573;51.334;3.244;2023-07-09T14:49:27;25.50;99.90
22813;DHT22;11573;51.334;3.244;2023-07-09T14:51:55;25.20;99.90
22813;DHT22;11573;51.334;3.244;2023-07-09T14:54:28;25.20;99.90
22813;DHT22;11573;51.334;3.244;2023-07-09T14:56:57;25.20;99.90
22813;DHT22;11573;51.334;3.244;2023-07-09T14:59:25;24.50;99.90
22813;DHT22;11573;51.334;3.244;2023-07-09T15:01:53;24.60;99.90
22813;DHT22;11573;51.334;3.244;2023-07-09T15:04:33;25.00;99.90
22813;DHT22;11573;51.334;3.244;2023-07-09T15:07:00;25.20;99.90
22813;DHT22;11573;51.334;3.244;2023-07-09T15:09:28;24.90;99.90
22813;DHT22;11573;51.334;3.244;2023-07-09T15:11:58;25.20;99.90
22813;DHT22;11573;51.334;3.244;2023-07-09T15:14:27;25.30;99.90
22813;DHT22;11573;51.334;3.244;2023-07-09T15:16:55;25.20;99.90
22813;DHT22;11573;51.334;3.244;2023-07-09T15:19:26;25.30;99.90
22813;DHT22;11573;51.334;3.244;2023-07-09T15:21:55;24.30;99.90
22813;DHT22;11573;51.334;3.244;2023-07-09T15:24:48;23.80;99.90
22813;DHT22;11573;51.334;3.244;2023-07-09T15:27:15;23.70;99.90
22813;DHT22;11573;51.334;3.244;2023-07-09T15:29:42;23.70;99.90
22813;DHT22;11573;51.334;3.244;2023-07-09T15:32:09;24.00;99.90
22813;DHT22;11573;51.334;3.244;2023-07-09T15:34:36;23.70;99.90
22813;DHT22;11573;51.334;3.244;2023-07-09T15:37:20;24.10;99.90
22813;DHT22;11573;51.334;3.244;2023-07-09T15:39:47;24.40;99.90
22813;DHT22;11573;51.334;3.244;2023-07-09T15:42:14;24.00;99.90
22813;DHT22;11573;51.334;3.244;2023-07-09T15:44:41;23.80;99.90
22813;DHT22;11573;51.334;3.244;2023-07-09T15:47:17;24.40;99.90
22813;DHT22;11573;51.334;3.244;2023-07-09T15:49:44;24.70;99.90
22813;DHT22;11573;51.334;3.244;2023-07-09T15:52:11;24.70;99.90
22813;DHT22;11573;51.334;3.244;2023-07-09T15:54:38;24.90;99.90
22813;DHT22;11573;51.334;3.244;2023-07-09T15:57:06;24.70;99.90
22813;DHT22;11573;51.334;3.244;2023-07-09T15:59:35;25.10;99.90
22813;DHT22;11573;51.334;3.244;2023-07-09T16:02:13;25.10;99.90
22813;DHT22;11573;51.334;3.244;2023-07-09T16:04:44;25.50;99.90
22813;DHT22;11573;51.334;3.244;2023-07-09T16:07:11;25.40;99.90
22813;DHT22;11573;51.334;3.244;2023-07-09T16:09:38;25.00;99.90
22813;DHT22;11573;51.334;3.244;2023-07-09T16:12:10;24.90;99.90
22813;DHT22;11573;51.334;3.244;2023-07-09T16:14:39;24.60;99.90
22813;DHT22;11573;51.334;3.244;2023-07-09T16:17:10;24.60;99.90
22813;DHT22;11573;51.334;3.244;2023-07-09T16:19:37;24.50;99.90
22813;DHT22;11573;51.334;3.244;2023-07-09T16:22:05;24.30;99.90
22813;DHT22;11573;51.334;3.244;2023-07-09T16:24:34;24.00;99.90